KFHR/FHR METAR and TAF weather

Enter ICAO airport designator
Station Type Date Time Source
KFHR METAR 2019/11/18 13:53 UTC NOAA

KFHR 181353Z AUTO 02003KT 7SM FEW005 OVC022 08/08 A3006 RMK AO2 SLP181 T00780078 $


Station Type Date Time Source
KFHR Decoded METAR 2019/11/18 13:53 UTC NOAA

FRIDAY HARBOR AIRPORT, WA, United States (KFHR) 48-31N 123-02W 32M
Nov 18, 2019 - 08:53 AM EST / 2019.11.18 1353 UTC
Wind: from the NNE (020 degrees) at 3 MPH (3 KT):0
Visibility: 7 mile(s):0
Sky conditions: overcast
Temperature: 46.0 F (7.8 C)
Dew Point: 46.0 F (7.8 C)
Relative Humidity: 100%
Pressure (altimeter): 30.06 in. Hg (1017 hPa)
ob: KFHR 181353Z AUTO 02003KT 7SM FEW005 OVC022 08/08 A3006 RMK AO2 SLP181 T00780078
cycle: 14

Station Type Date Time Source
KFHR TAF UTC NOAA

Error!

Example: see airport list